Time;durP1;ratioP1;P1;durP2;ratioP2;P2;SDS_P1;SDS_P2;PMS_P1;PMS_P2;Temp;Humidity;BMP_temperature;BMP_pressure;BME280_temperature;BME280_humidity;BME280_pressure;Samples;Min_cycle;Max_cycle;Signal;HPM_P1;HPM_P2
2020/12/20 00:02:03;;;;;;;;;;;10.00;99.90;;;;;;4735511;30;20392;-80
2020/12/20 00:04:29;;;;;;;;;;;10.00;99.90;;;;;;4721907;30;20005;-80
2020/12/20 00:06:55;;;;;;;;;;;10.00;99.90;;;;;;4719152;30;20364;-80
2020/12/20 00:09:21;;;;;;;;;;;10.00;99.90;;;;;;4711603;30;19919;-80
2020/12/20 00:11:51;;;;;;;;;;;10.00;99.90;;;;;;4702366;30;20340;-80
2020/12/20 00:14:28;;;;;;;;;;;9.90;99.90;;;;;;4719292;30;19915;-80
2020/12/20 00:16:55;;;;;;;;;;;9.90;99.90;;;;;;4707655;30;20054;-80
2020/12/20 00:19:21;;;;;;;;;;;9.90;99.90;;;;;;4718739;30;19915;-80
2020/12/20 00:21:46;;;;;;;;;;;10.00;99.90;;;;;;4709392;30;20364;-80
2020/12/20 00:24:12;;;;;;;;;;;10.00;99.90;;;;;;4718017;30;20413;-80
2020/12/20 00:26:42;;;;;;;;;;;10.10;99.90;;;;;;4718541;30;20002;-80
2020/12/20 00:29:07;;;;;;;;;;;10.10;99.90;;;;;;4718806;30;20419;-80
2020/12/20 00:31:33;;;;;;;;;;;10.10;99.90;;;;;;4719267;30;20006;-80
2020/12/20 00:33:58;;;;;;;;;;;10.10;99.90;;;;;;4715983;30;19915;-80
2020/12/20 00:36:24;;;;;;;;;;;10.20;99.90;;;;;;4707003;30;19921;-80
2020/12/20 00:38:50;;;;;;;;;;;10.20;99.90;;;;;;4709549;30;19957;-80
2020/12/20 00:41:15;;;;;;;;;;;10.20;99.90;;;;;;4701225;30;19915;-80
2020/12/20 00:43:41;;;;;;;;;;;10.20;99.90;;;;;;4701218;30;20380;-80
2020/12/20 00:46:07;;;;;;;;;;;10.10;99.90;;;;;;4709987;30;20009;-80
2020/12/20 00:48:32;;;;;;;;;;;10.10;99.90;;;;;;4732403;30;20340;-80
2020/12/20 00:50:59;;;;;;;;;;;10.00;99.90;;;;;;4718542;30;19919;-80
2020/12/20 00:53:25;;;;;;;;;;;9.90;99.90;;;;;;4718677;30;19915;-80
2020/12/20 00:55:51;;;;;;;;;;;9.90;99.90;;;;;;4711653;30;19969;-80
2020/12/20 00:58:16;;;;;;;;;;;9.80;99.90;;;;;;4700952;30;19922;-80
2020/12/20 01:00:42;;;;;;;;;;;9.80;99.90;;;;;;4700998;30;19915;-80
2020/12/20 01:03:08;;;;;;;;;;;9.80;99.90;;;;;;4712701;30;19930;-80
2020/12/20 01:05:33;;;;;;;;;;;9.80;99.90;;;;;;4718307;30;20429;-80
2020/12/20 01:07:59;;;;;;;;;;;9.70;99.90;;;;;;4717972;30;20394;-80
2020/12/20 01:10:25;;;;;;;;;;;9.70;99.90;;;;;;4713353;30;20398;-80
2020/12/20 01:12:50;;;;;;;;;;;9.70;99.90;;;;;;4700475;30;19915;-80
2020/12/20 01:15:16;;;;;;;;;;;9.60;99.90;;;;;;4712305;30;19973;-80
2020/12/20 01:17:41;;;;;;;;;;;9.60;99.90;;;;;;4717880;30;20279;-80
2020/12/20 01:20:07;;;;;;;;;;;9.60;99.90;;;;;;4716578;30;20376;-79
2020/12/20 01:22:33;;;;;;;;;;;9.50;99.90;;;;;;4717523;30;20334;-80
2020/12/20 01:24:58;;;;;;;;;;;9.50;99.90;;;;;;4717694;30;19919;-80
2020/12/20 01:27:24;;;;;;;;;;;9.50;99.90;;;;;;4717657;30;19914;-80
2020/12/20 01:29:50;;;;;;;;;;;9.50;99.90;;;;;;4705776;30;19915;-80
2020/12/20 01:32:17;;;;;;;;;;;9.60;99.90;;;;;;4717382;30;19922;-80
2020/12/20 01:34:43;;;;;;;;;;;9.60;99.90;;;;;;4716255;30;20041;-80
2020/12/20 01:37:08;;;;;;;;;;;9.50;99.90;;;;;;4717817;30;19915;-79
2020/12/20 01:39:34;;;;;;;;;;;9.40;99.90;;;;;;4715861;30;20402;-79
2020/12/20 01:42:00;;;;;;;;;;;9.40;99.90;;;;;;4717477;30;20391;-80
2020/12/20 01:44:25;;;;;;;;;;;9.30;99.90;;;;;;4717414;30;19925;-80
2020/12/20 01:46:54;;;;;;;;;;;9.40;99.90;;;;;;4717425;30;19948;-80
2020/12/20 01:49:19;;;;;;;;;;;9.40;99.90;;;;;;4704529;30;19915;-80
2020/12/20 01:51:47;;;;;;;;;;;9.40;99.90;;;;;;4699978;30;19921;-80
2020/12/20 01:54:13;;;;;;;;;;;9.40;99.90;;;;;;4700032;30;19915;-80
2020/12/20 01:56:38;;;;;;;;;;;9.40;99.90;;;;;;4700227;30;19921;-79
2020/12/20 01:59:04;;;;;;;;;;;9.40;99.90;;;;;;4707940;30;19919;-80
2020/12/20 02:01:30;;;;;;;;;;;9.40;99.90;;;;;;4716889;30;19985;-79
2020/12/20 02:03:56;;;;;;;;;;;9.40;99.90;;;;;;4717054;30;19923;-80
2020/12/20 02:06:22;;;;;;;;;;;9.50;99.90;;;;;;4716808;30;19949;-79
2020/12/20 02:08:47;;;;;;;;;;;9.50;99.90;;;;;;4700112;30;19977;-79
2020/12/20 02:11:15;;;;;;;;;;;9.50;99.90;;;;;;4699782;30;19965;-80
2020/12/20 02:13:48;;;;;;;;;;;9.40;99.90;;;;;;4700489;30;19922;-80
2020/12/20 02:16:14;;;;;;;;;;;9.50;99.90;;;;;;4699919;30;19998;-79
2020/12/20 02:18:40;;;;;;;;;;;9.50;99.90;;;;;;4716725;30;20025;-80
2020/12/20 02:21:25;;;;;;;;;;;9.50;99.90;;;;;;4717235;30;19921;-80
2020/12/20 02:23:51;;;;;;;;;;;9.60;99.90;;;;;;4717103;30;20390;-80
2020/12/20 02:26:17;;;;;;;;;;;9.60;99.90;;;;;;4717000;30;19914;-80
2020/12/20 02:28:43;;;;;;;;;;;9.50;99.90;;;;;;4700129;30;19973;-79
2020/12/20 02:31:09;;;;;;;;;;;9.60;99.90;;;;;;4700275;30;20327;-79
2020/12/20 02:33:35;;;;;;;;;;;9.50;99.90;;;;;;4699606;30;19915;-80
2020/12/20 02:36:01;;;;;;;;;;;9.50;99.90;;;;;;4699483;30;19915;-80
2020/12/20 02:38:28;;;;;;;;;;;9.60;99.90;;;;;;4713272;30;19946;-79
2020/12/20 02:40:55;;;;;;;;;;;9.60;99.90;;;;;;4718823;30;19915;-80
2020/12/20 02:43:20;;;;;;;;;;;9.70;99.90;;;;;;4716736;30;19923;-80
2020/12/20 02:45:46;;;;;;;;;;;9.70;99.90;;;;;;4716762;30;19922;-80
2020/12/20 02:48:11;;;;;;;;;;;9.70;99.90;;;;;;4719073;30;19915;-80
2020/12/20 02:50:37;;;;;;;;;;;9.70;99.90;;;;;;4722646;30;19918;-80
2020/12/20 02:53:03;;;;;;;;;;;9.80;99.90;;;;;;4720705;30;20390;-80
2020/12/20 02:55:28;;;;;;;;;;;9.80;99.90;;;;;;4722315;30;19918;-80
2020/12/20 02:57:54;;;;;;;;;;;9.80;99.90;;;;;;4721197;30;20348;-80
2020/12/20 03:00:20;;;;;;;;;;;9.80;99.90;;;;;;4722719;30;19922;-79
2020/12/20 03:02:46;;;;;;;;;;;9.80;99.90;;;;;;4722491;30;20000;-80
2020/12/20 03:05:12;;;;;;;;;;;9.80;99.90;;;;;;4722594;30;20356;-79
2020/12/20 03:07:37;;;;;;;;;;;9.80;99.90;;;;;;4716741;30;20368;-79
2020/12/20 03:10:04;;;;;;;;;;;9.80;99.90;;;;;;4704726;30;19915;-80
2020/12/20 03:12:30;;;;;;;;;;;9.80;99.90;;;;;;4704555;30;20352;-80
2020/12/20 03:14:56;;;;;;;;;;;9.80;99.90;;;;;;4704796;30;19915;-79
2020/12/20 03:17:21;;;;;;;;;;;9.80;99.90;;;;;;4711340;30;19915;-79
2020/12/20 03:19:48;;;;;;;;;;;9.80;99.90;;;;;;4721579;30;19926;-79
2020/12/20 03:22:14;;;;;;;;;;;9.80;99.90;;;;;;4722455;30;19919;-79
2020/12/20 03:24:40;;;;;;;;;;;9.90;99.90;;;;;;4721930;30;19919;-80
2020/12/20 03:27:06;;;;;;;;;;;9.90;99.90;;;;;;4721203;30;19946;-80
2020/12/20 03:29:31;;;;;;;;;;;9.90;99.90;;;;;;4722363;30;19940;-79
2020/12/20 03:31:57;;;;;;;;;;;9.90;99.90;;;;;;4721980;30;19925;-80
2020/12/20 03:34:23;;;;;;;;;;;9.90;99.90;;;;;;4722049;30;19915;-80
2020/12/20 03:36:48;;;;;;;;;;;9.90;99.90;;;;;;4719243;30;19927;-80
2020/12/20 03:39:14;;;;;;;;;;;9.90;99.90;;;;;;4705060;30;20368;-80
2020/12/20 03:41:40;;;;;;;;;;;9.90;99.90;;;;;;4704678;30;19942;-80
2020/12/20 03:44:05;;;;;;;;;;;9.90;99.90;;;;;;4704316;30;19953;-79
2020/12/20 03:46:31;;;;;;;;;;;9.90;99.90;;;;;;4704401;30;19915;-79
2020/12/20 03:48:57;;;;;;;;;;;10.00;99.90;;;;;;4719563;30;19919;-80
2020/12/20 03:51:22;;;;;;;;;;;10.00;99.90;;;;;;4722005;30;19984;-80
2020/12/20 03:53:48;;;;;;;;;;;9.90;99.90;;;;;;4720918;30;20005;-80
2020/12/20 03:56:13;;;;;;;;;;;10.00;99.90;;;;;;4722299;30;20439;-80
2020/12/20 03:58:39;;;;;;;;;;;10.00;99.90;;;;;;4704670;30;20002;-79
2020/12/20 04:01:05;;;;;;;;;;;9.90;99.90;;;;;;4701813;30;19922;-80
2020/12/20 04:03:30;;;;;;;;;;;9.90;99.90;;;;;;4709212;30;19930;-80
2020/12/20 04:05:56;;;;;;;;;;;9.90;99.90;;;;;;4718810;30;19954;-80
2020/12/20 04:08:22;;;;;;;;;;;9.90;99.90;;;;;;4719089;30;19915;-80
2020/12/20 04:10:47;;;;;;;;;;;9.90;99.90;;;;;;4719756;30;19919;-79
2020/12/20 04:13:13;;;;;;;;;;;9.80;99.90;;;;;;4718153;30;19915;-79
2020/12/20 04:15:38;;;;;;;;;;;9.90;99.90;;;;;;4717443;30;20526;-80
2020/12/20 04:18:04;;;;;;;;;;;9.90;99.90;;;;;;4719115;30;19922;-80
2020/12/20 04:20:30;;;;;;;;;;;9.90;99.90;;;;;;4719005;30;19919;-80
2020/12/20 04:22:55;;;;;;;;;;;9.90;99.90;;;;;;4718861;30;19918;-79
2020/12/20 04:25:21;;;;;;;;;;;9.90;99.90;;;;;;4718545;30;19922;-80
2020/12/20 04:27:48;;;;;;;;;;;9.80;99.90;;;;;;4719473;30;20013;-80
2020/12/20 04:30:14;;;;;;;;;;;9.80;99.90;;;;;;4717845;30;20332;-80
2020/12/20 04:32:40;;;;;;;;;;;9.80;99.90;;;;;;4718907;30;20009;-80
2020/12/20 04:35:06;;;;;;;;;;;9.80;99.90;;;;;;4718239;30;19921;-80
2020/12/20 04:37:31;;;;;;;;;;;9.80;99.90;;;;;;4718735;30;20307;-80
2020/12/20 04:39:57;;;;;;;;;;;9.80;99.90;;;;;;4719068;30;19964;-80
2020/12/20 04:42:23;;;;;;;;;;;9.80;99.90;;;;;;4718770;30;19922;-80
2020/12/20 04:44:48;;;;;;;;;;;9.90;99.90;;;;;;4717314;30;19961;-79
2020/12/20 04:47:15;;;;;;;;;;;9.80;99.90;;;;;;4701337;30;19915;-79
2020/12/20 04:49:44;;;;;;;;;;;9.80;99.90;;;;;;4703232;30;19918;-79
2020/12/20 04:52:10;;;;;;;;;;;9.80;99.90;;;;;;4717685;30;19915;-80
2020/12/20 04:54:36;;;;;;;;;;;9.90;99.90;;;;;;4718520;30;20426;-80
2020/12/20 04:57:02;;;;;;;;;;;9.90;99.90;;;;;;4717488;30;19946;-80
2020/12/20 04:59:28;;;;;;;;;;;9.90;99.90;;;;;;4718630;30;19926;-80
2020/12/20 05:01:54;;;;;;;;;;;9.80;99.90;;;;;;4718074;30;19919;-79
2020/12/20 05:04:20;;;;;;;;;;;9.90;99.90;;;;;;4718162;30;19922;-79
2020/12/20 05:06:45;;;;;;;;;;;9.90;99.90;;;;;;4717781;30;20013;-79
2020/12/20 05:09:11;;;;;;;;;;;9.80;99.90;;;;;;4718145;30;19915;-79
2020/12/20 05:11:38;;;;;;;;;;;9.90;99.90;;;;;;4702282;30;19915;-80
2020/12/20 05:14:05;;;;;;;;;;;9.90;99.90;;;;;;4700591;30;20431;-80
2020/12/20 05:16:34;;;;;;;;;;;9.90;99.90;;;;;;4700580;30;19950;-80
2020/12/20 05:19:00;;;;;;;;;;;9.90;99.90;;;;;;4700397;30;19919;-80
2020/12/20 05:21:27;;;;;;;;;;;9.90;99.90;;;;;;4713402;30;20355;-80
2020/12/20 05:23:53;;;;;;;;;;;9.70;99.90;;;;;;4718098;30;19929;-80
2020/12/20 05:26:26;;;;;;;;;;;9.70;99.90;;;;;;4718206;30;19921;-79
2020/12/20 05:28:52;;;;;;;;;;;9.70;99.90;;;;;;4718245;30;19915;-80
2020/12/20 05:31:19;;;;;;;;;;;9.70;99.90;;;;;;4704917;30;19919;-80
2020/12/20 05:33:45;;;;;;;;;;;9.70;99.90;;;;;;4700011;30;19915;-79
2020/12/20 05:36:11;;;;;;;;;;;9.70;99.90;;;;;;4700097;30;19915;-79
2020/12/20 05:38:37;;;;;;;;;;;9.70;99.90;;;;;;4713395;30;20364;-80
2020/12/20 05:41:03;;;;;;;;;;;9.70;99.90;;;;;;4717660;30;19972;-79
2020/12/20 05:43:29;;;;;;;;;;;9.80;99.90;;;;;;4717280;30;19923;-80
2020/12/20 05:45:55;;;;;;;;;;;9.70;99.90;;;;;;4711063;30;19915;-80
2020/12/20 05:48:22;;;;;;;;;;;9.70;99.90;;;;;;4714634;30;19964;-79
2020/12/20 05:50:55;;;;;;;;;;;9.70;99.90;;;;;;4717434;30;19919;-80
2020/12/20 05:53:22;;;;;;;;;;;9.70;99.90;;;;;;4717796;30;20422;-80
2020/12/20 05:55:48;;;;;;;;;;;9.60;99.90;;;;;;4713154;30;19919;-79
2020/12/20 05:58:14;;;;;;;;;;;9.60;99.90;;;;;;4717211;30;19965;-79
2020/12/20 06:00:41;;;;;;;;;;;9.60;99.90;;;;;;4711619;30;19922;-79
2020/12/20 06:03:07;;;;;;;;;;;9.60;99.90;;;;;;4710932;30;19929;-79
2020/12/20 06:05:34;;;;;;;;;;;9.60;99.90;;;;;;4717380;30;20252;-79
2020/12/20 06:08:03;;;;;;;;;;;9.70;99.90;;;;;;4717295;30;19926;-80
2020/12/20 06:10:33;;;;;;;;;;;9.70;99.90;;;;;;4717364;30;19915;-79
2020/12/20 06:13:02;;;;;;;;;;;9.60;99.90;;;;;;4707688;30;19955;-80
2020/12/20 06:15:29;;;;;;;;;;;9.60;99.90;;;;;;4699822;30;19955;-80
2020/12/20 06:17:57;;;;;;;;;;;9.60;99.90;;;;;;4706742;30;19915;-80
2020/12/20 06:20:30;;;;;;;;;;;9.60;99.90;;;;;;4717683;30;20005;-80
2020/12/20 06:22:56;;;;;;;;;;;9.50;99.90;;;;;;4707956;30;19923;-80
2020/12/20 06:25:28;;;;;;;;;;;9.60;99.90;;;;;;4700285;30;19973;-79
2020/12/20 06:28:02;;;;;;;;;;;9.50;99.90;;;;;;4700081;30;20356;-80
2020/12/20 06:30:28;;;;;;;;;;;9.40;99.90;;;;;;4703424;30;19954;-79
2020/12/20 06:32:55;;;;;;;;;;;9.50;99.90;;;;;;4717003;30;19942;-79
2020/12/20 06:35:22;;;;;;;;;;;9.40;99.90;;;;;;4704647;30;19915;-80
2020/12/20 06:37:48;;;;;;;;;;;9.40;99.90;;;;;;4715630;30;19930;-79
2020/12/20 06:40:20;;;;;;;;;;;9.40;99.90;;;;;;4713158;30;19927;-79
2020/12/20 06:42:46;;;;;;;;;;;9.40;99.90;;;;;;4706775;30;19960;-79
2020/12/20 06:45:16;;;;;;;;;;;9.40;99.90;;;;;;4717051;30;19919;-79
2020/12/20 06:47:42;;;;;;;;;;;9.50;99.90;;;;;;4716730;30;19915;-79
2020/12/20 06:50:08;;;;;;;;;;;9.50;99.90;;;;;;4716689;30;19969;-79
2020/12/20 06:52:43;;;;;;;;;;;9.50;99.90;;;;;;4716880;30;19961;-80
2020/12/20 06:55:12;;;;;;;;;;;9.50;99.90;;;;;;4716850;30;19951;-79
2020/12/20 06:57:58;;;;;;;;;;;9.60;99.90;;;;;;4717009;30;20410;-79
2020/12/20 07:00:39;;;;;;;;;;;9.60;99.90;;;;;;4704990;30;19918;-80
2020/12/20 07:03:05;;;;;;;;;;;9.50;99.90;;;;;;4716594;30;19959;-80
2020/12/20 07:05:34;;;;;;;;;;;9.60;99.90;;;;;;4716321;30;19918;-79
2020/12/20 07:08:07;;;;;;;;;;;9.60;99.90;;;;;;4716763;30;19918;-79
2020/12/20 07:10:40;;;;;;;;;;;9.60;99.90;;;;;;4716710;30;19984;-80
2020/12/20 07:13:06;;;;;;;;;;;9.60;99.90;;;;;;4716440;30;19919;-80
2020/12/20 07:15:45;;;;;;;;;;;9.60;99.90;;;;;;4716322;30;20483;-80
2020/12/20 07:18:11;;;;;;;;;;;9.60;99.90;;;;;;4716750;30;19915;-79
2020/12/20 07:20:36;;;;;;;;;;;9.50;99.90;;;;;;4716453;30;20006;-80
2020/12/20 07:23:02;;;;;;;;;;;9.50;99.90;;;;;;4715835;30;20017;-80
2020/12/20 07:25:28;;;;;;;;;;;9.50;99.90;;;;;;4716857;30;20376;-79
2020/12/20 07:27:54;;;;;;;;;;;9.60;99.90;;;;;;4716344;30;20438;-79
2020/12/20 07:30:19;;;;;;;;;;;9.50;99.90;;;;;;4715528;30;19965;-78
2020/12/20 07:32:45;;;;;;;;;;;9.50;99.90;;;;;;4716281;30;20021;-78
2020/12/20 07:35:13;;;;;;;;;;;9.40;99.90;;;;;;4718180;30;19915;-79
2020/12/20 07:37:52;;;;;;;;;;;9.50;99.90;;;;;;4719457;30;19921;-79
2020/12/20 07:40:18;;;;;;;;;;;9.50;99.90;;;;;;4703942;30;19923;-79
2020/12/20 07:42:44;;;;;;;;;;;9.50;99.90;;;;;;4719348;30;19919;-79
2020/12/20 07:45:13;;;;;;;;;;;9.50;99.90;;;;;;4719413;30;19926;-79
2020/12/20 07:47:39;;;;;;;;;;;9.40;99.90;;;;;;4719330;30;20363;-79
2020/12/20 07:50:05;;;;;;;;;;;9.50;99.90;;;;;;4717686;30;19964;-79
2020/12/20 07:52:30;;;;;;;;;;;9.40;99.90;;;;;;4717689;30;20013;-78
2020/12/20 07:54:59;;;;;;;;;;;9.50;99.90;;;;;;4717845;30;20041;-78
2020/12/20 07:57:27;;;;;;;;;;;9.50;99.90;;;;;;4718597;30;19915;-79
2020/12/20 08:00:05;;;;;;;;;;;9.50;99.90;;;;;;4719238;30;19934;-79
2020/12/20 08:02:32;;;;;;;;;;;9.60;99.90;;;;;;4719464;30;19919;-80
2020/12/20 08:05:08;;;;;;;;;;;9.60;99.90;;;;;;4736171;30;19918;-79
2020/12/20 08:07:34;;;;;;;;;;;9.60;99.90;;;;;;4736718;30;20020;-79
2020/12/20 08:09:59;;;;;;;;;;;9.60;99.90;;;;;;4737302;30;19949;-79
2020/12/20 08:12:25;;;;;;;;;;;9.60;99.90;;;;;;4735554;30;19945;-79
2020/12/20 08:15:20;;;;;;;;;;;9.60;99.90;;;;;;4736742;30;19921;-79
2020/12/20 08:17:46;;;;;;;;;;;9.70;99.90;;;;;;4724703;30;19914;-79
2020/12/20 08:20:12;;;;;;;;;;;9.60;99.90;;;;;;4738252;30;19921;-79
2020/12/20 08:22:41;;;;;;;;;;;9.60;99.90;;;;;;4738443;30;19922;-79
2020/12/20 08:25:08;;;;;;;;;;;9.80;99.90;;;;;;4738545;30;19919;-79
2020/12/20 08:27:33;;;;;;;;;;;9.80;99.90;;;;;;4738542;30;19921;-79
2020/12/20 08:30:00;;;;;;;;;;;9.70;99.90;;;;;;4738549;30;19915;-79
2020/12/20 08:32:41;;;;;;;;;;;9.70;99.90;;;;;;4738085;30;19914;-79
2020/12/20 08:35:08;;;;;;;;;;;9.70;99.90;;;;;;4737882;30;19915;-79
2020/12/20 08:37:34;;;;;;;;;;;9.80;99.90;;;;;;4720786;30;19914;-79
2020/12/20 08:40:10;;;;;;;;;;;9.80;99.90;;;;;;4736525;30;20056;-79
2020/12/20 08:42:36;;;;;;;;;;;9.90;99.90;;;;;;4736168;30;19918;-79
2020/12/20 08:45:09;;;;;;;;;;;9.90;99.90;;;;;;4735255;30;20056;-79
2020/12/20 08:47:35;;;;;;;;;;;10.00;99.90;;;;;;4737497;30;19953;-79
2020/12/20 08:50:01;;;;;;;;;;;10.10;99.90;;;;;;4738244;30;20012;-79
2020/12/20 08:52:28;;;;;;;;;;;10.10;99.90;;;;;;4738241;30;20088;-79
2020/12/20 08:54:55;;;;;;;;;;;10.10;99.90;;;;;;4738097;30;19914;-79
2020/12/20 08:57:24;;;;;;;;;;;10.10;99.90;;;;;;4738227;30;19914;-79
2020/12/20 08:59:50;;;;;;;;;;;10.00;99.90;;;;;;4737417;30;20352;-79
2020/12/20 09:02:19;;;;;;;;;;;10.00;99.90;;;;;;4740011;30;19925;-79
2020/12/20 09:04:58;;;;;;;;;;;10.00;99.90;;;;;;4736886;30;20359;-79
2020/12/20 09:07:35;;;;;;;;;;;10.00;99.90;;;;;;4733825;30;19915;-79
2020/12/20 09:10:08;;;;;;;;;;;10.00;99.90;;;;;;4726349;30;19925;-78
2020/12/20 09:12:33;;;;;;;;;;;10.00;99.90;;;;;;4736863;30;19915;-79
2020/12/20 09:15:06;;;;;;;;;;;10.00;99.90;;;;;;4737205;30;19988;-78
2020/12/20 09:17:33;;;;;;;;;;;10.10;99.90;;;;;;4737407;30;19914;-78
2020/12/20 09:19:59;;;;;;;;;;;10.10;99.90;;;;;;4737274;30;19914;-78
2020/12/20 09:22:37;;;;;;;;;;;10.10;99.90;;;;;;4737203;30;19930;-79
2020/12/20 09:25:03;;;;;;;;;;;10.10;99.90;;;;;;4737070;30;19965;-77
2020/12/20 09:27:29;;;;;;;;;;;10.20;99.90;;;;;;4736163;30;19915;-78
2020/12/20 09:29:54;;;;;;;;;;;10.20;99.90;;;;;;4740175;30;20355;-79
2020/12/20 09:32:20;;;;;;;;;;;10.30;99.90;;;;;;4728354;30;19915;-78
2020/12/20 09:34:46;;;;;;;;;;;10.40;99.90;;;;;;4728307;30;19914;-78
2020/12/20 09:37:11;;;;;;;;;;;10.40;99.90;;;;;;4744210;30;19999;-78
2020/12/20 09:40:06;;;;;;;;;;;10.40;99.90;;;;;;4741914;30;20033;-79
2020/12/20 09:42:45;;;;;;;;;;;10.40;99.90;;;;;;4742357;30;20486;-77
2020/12/20 09:45:15;;;;;;;;;;;10.40;99.90;;;;;;4739975;30;20379;-80
2020/12/20 09:47:45;;;;;;;;;;;10.50;99.90;;;;;;4743249;30;19921;-78
2020/12/20 09:50:21;;;;;;;;;;;10.60;99.90;;;;;;4716600;30;19914;-78
2020/12/20 09:52:47;;;;;;;;;;;10.60;99.90;;;;;;4727059;30;20350;-75
2020/12/20 09:55:12;;;;;;;;;;;10.60;99.90;;;;;;4745442;30;19914;-76
2020/12/20 09:57:43;;;;;;;;;;;10.70;99.90;;;;;;4741377;30;20425;-78
2020/12/20 10:00:12;;;;;;;;;;;10.80;99.90;;;;;;4742418;30;19921;-76
2020/12/20 10:02:41;;;;;;;;;;;11.00;99.90;;;;;;4741387;30;19926;-78
2020/12/20 10:05:09;;;;;;;;;;;11.00;99.90;;;;;;4747007;30;19914;-73
2020/12/20 10:07:38;;;;;;;;;;;11.10;99.90;;;;;;4742361;30;19914;-73
2020/12/20 10:10:05;;;;;;;;;;;11.10;99.90;;;;;;4734318;30;19922;-78
2020/12/20 10:12:31;;;;;;;;;;;11.20;99.90;;;;;;4736083;30;19915;-78
2020/12/20 10:14:57;;;;;;;;;;;11.30;99.90;;;;;;4719432;30;19965;-79
2020/12/20 10:17:56;;;;;;;;;;;11.30;99.90;;;;;;4734801;30;19918;-78
2020/12/20 10:20:21;;;;;;;;;;;11.30;99.90;;;;;;4735379;30;20311;-78
2020/12/20 10:22:50;;;;;;;;;;;11.40;99.90;;;;;;4719839;30;19922;-78
2020/12/20 10:25:16;;;;;;;;;;;11.40;99.90;;;;;;4719305;30;19922;-79
2020/12/20 10:27:42;;;;;;;;;;;11.40;99.90;;;;;;4732194;30;20005;-79
2020/12/20 10:30:08;;;;;;;;;;;11.50;99.90;;;;;;4717846;30;19993;-78
2020/12/20 10:32:36;;;;;;;;;;;11.50;99.90;;;;;;4718663;30;19949;-78
2020/12/20 10:35:02;;;;;;;;;;;11.50;99.90;;;;;;4717403;30;19925;-77
2020/12/20 10:37:27;;;;;;;;;;;11.60;99.90;;;;;;4733160;30;19914;-79
2020/12/20 10:39:53;;;;;;;;;;;11.60;99.90;;;;;;4748914;30;19953;-78
2020/12/20 10:42:19;;;;;;;;;;;11.60;99.90;;;;;;4749436;30;19918;-78
2020/12/20 10:44:44;;;;;;;;;;;11.60;99.90;;;;;;4729697;30;19919;-79
2020/12/20 10:47:13;;;;;;;;;;;11.70;99.90;;;;;;4717555;30;19923;-79
2020/12/20 10:49:39;;;;;;;;;;;11.80;99.90;;;;;;4717093;30;19915;-79
2020/12/20 10:52:08;;;;;;;;;;;12.10;99.90;;;;;;4716481;30;19922;-78
2020/12/20 10:54:34;;;;;;;;;;;11.90;99.90;;;;;;4720370;30;19914;-79
2020/12/20 11:00:11;;;;;;;;;;;11.80;99.90;;;;;;4733351;30;19914;-79
2020/12/20 11:02:37;;;;;;;;;;;11.70;99.90;;;;;;4718336;30;19954;-79
2020/12/20 11:05:19;;;;;;;;;;;11.60;99.90;;;;;;4718390;30;19949;-78
2020/12/20 11:07:50;;;;;;;;;;;11.60;99.90;;;;;;4749504;30;19915;-78
2020/12/20 11:10:44;;;;;;;;;;;11.50;99.90;;;;;;4737357;30;19920;-78
2020/12/20 11:19:19;;;;;;;;;;;11.50;99.90;;;;;;4693976;30;19914;-78
2020/12/20 11:21:49;;;;;;;;;;;11.60;99.90;;;;;;4711573;30;19921;-79
2020/12/20 11:24:14;;;;;;;;;;;11.60;99.90;;;;;;4739838;30;20433;-78
2020/12/20 11:26:41;;;;;;;;;;;11.60;99.90;;;;;;4738309;30;19915;-77
2020/12/20 11:29:07;;;;;;;;;;;11.70;99.90;;;;;;4739545;30;19914;-77
2020/12/20 11:31:32;;;;;;;;;;;11.90;99.90;;;;;;4735123;30;20268;-78
2020/12/20 11:33:58;;;;;;;;;;;12.10;99.90;;;;;;4720349;30;19919;-78
2020/12/20 11:36:24;;;;;;;;;;;12.20;99.90;;;;;;4720528;30;19925;-78
2020/12/20 11:38:50;;;;;;;;;;;12.40;99.90;;;;;;4720894;30;19914;-78
2020/12/20 11:41:20;;;;;;;;;;;12.70;99.90;;;;;;4721735;30;20368;-79
2020/12/20 11:43:45;;;;;;;;;;;12.90;99.90;;;;;;4737772;30;20382;-79
2020/12/20 11:46:11;;;;;;;;;;;12.90;99.90;;;;;;4739160;30;19997;-79
2020/12/20 11:48:39;;;;;;;;;;;12.90;99.90;;;;;;4739203;30;19921;-78
2020/12/20 11:51:05;;;;;;;;;;;13.20;99.90;;;;;;4737704;30;19922;-78
2020/12/20 11:53:31;;;;;;;;;;;13.10;99.90;;;;;;4705714;30;19915;-79
2020/12/20 11:55:56;;;;;;;;;;;13.00;99.90;;;;;;4720429;30;19915;-79
2020/12/20 11:58:23;;;;;;;;;;;13.40;99.90;;;;;;4721520;30;20005;-79
2020/12/20 12:00:49;;;;;;;;;;;13.30;99.90;;;;;;4723511;30;19958;-79
2020/12/20 12:03:15;;;;;;;;;;;13.20;99.90;;;;;;4736756;30;20031;-79
2020/12/20 12:05:47;;;;;;;;;;;13.00;99.90;;;;;;4753982;30;19918;-79
2020/12/20 12:08:13;;;;;;;;;;;13.00;99.90;;;;;;4737042;30;19922;-79
2020/12/20 12:10:43;;;;;;;;;;;12.80;99.90;;;;;;4737629;30;20005;-78
2020/12/20 12:13:09;;;;;;;;;;;12.80;99.90;;;;;;4722808;30;19925;-79
2020/12/20 12:15:39;;;;;;;;;;;12.70;99.90;;;;;;4718473;30;19915;-79
2020/12/20 12:18:05;;;;;;;;;;;12.70;99.90;;;;;;4716687;30;19949;-78
2020/12/20 12:20:30;;;;;;;;;;;12.80;99.90;;;;;;4734385;30;19921;-79
2020/12/20 12:22:56;;;;;;;;;;;12.80;99.90;;;;;;4754958;30;20275;-78
2020/12/20 12:25:22;;;;;;;;;;;12.70;99.90;;;;;;4744715;30;20321;-79
2020/12/20 12:27:47;;;;;;;;;;;12.70;99.90;;;;;;4735394;30;19955;-80
2020/12/20 12:30:13;;;;;;;;;;;12.60;99.90;;;;;;4730649;30;19915;-79
2020/12/20 12:32:39;;;;;;;;;;;12.70;99.90;;;;;;4718700;30;19915;-78
2020/12/20 12:35:05;;;;;;;;;;;12.60;99.90;;;;;;4717627;30;19914;-78
2020/12/20 12:37:31;;;;;;;;;;;12.70;99.90;;;;;;4719082;30;19914;-78
2020/12/20 12:40:14;;;;;;;;;;;12.60;99.90;;;;;;4721400;30;19921;-79
2020/12/20 12:42:40;;;;;;;;;;;12.60;99.90;;;;;;4734442;30;19918;-81
2020/12/20 12:45:06;;;;;;;;;;;12.60;99.90;;;;;;4732971;30;19980;-80
2020/12/20 12:47:32;;;;;;;;;;;12.60;99.90;;;;;;4735646;30;19922;-79
2020/12/20 12:49:58;;;;;;;;;;;12.60;99.90;;;;;;4732298;30;19926;-79
2020/12/20 12:52:24;;;;;;;;;;;12.70;99.90;;;;;;4716632;30;19922;-79
2020/12/20 12:54:50;;;;;;;;;;;12.60;99.90;;;;;;4717999;30;19922;-80
2020/12/20 12:57:15;;;;;;;;;;;12.70;99.90;;;;;;4718451;30;19915;-81
2020/12/20 12:59:42;;;;;;;;;;;12.80;99.90;;;;;;4719048;30;19922;-78
2020/12/20 13:02:07;;;;;;;;;;;13.00;99.90;;;;;;4720155;30;19944;-77
2020/12/20 13:04:35;;;;;;;;;;;12.90;99.90;;;;;;4719461;30;19922;-79
2020/12/20 13:07:01;;;;;;;;;;;12.80;99.90;;;;;;4719671;30;20390;-79
2020/12/20 13:09:26;;;;;;;;;;;12.80;99.90;;;;;;4734653;30;19914;-78
2020/12/20 13:11:52;;;;;;;;;;;12.90;99.90;;;;;;4748209;30;20290;-81
2020/12/20 13:14:18;;;;;;;;;;;13.00;99.90;;;;;;4735943;30;19972;-78
2020/12/20 13:16:50;;;;;;;;;;;12.90;99.90;;;;;;4734270;30;19948;-78
2020/12/20 13:19:16;;;;;;;;;;;12.90;99.90;;;;;;4724148;30;19921;-80
2020/12/20 13:21:41;;;;;;;;;;;12.80;99.90;;;;;;4716726;30;19922;-79
2020/12/20 13:24:07;;;;;;;;;;;12.80;99.90;;;;;;4727750;30;19922;-79
2020/12/20 13:26:32;;;;;;;;;;;12.70;99.80;;;;;;4716481;30;20363;-79
2020/12/20 13:28:58;;;;;;;;;;;12.70;99.90;;;;;;4716777;30;19922;-79
2020/12/20 13:31:24;;;;;;;;;;;12.80;99.90;;;;;;4717863;30;19915;-79
2020/12/20 13:33:49;;;;;;;;;;;12.80;99.90;;;;;;4717748;30;19961;-78
2020/12/20 13:36:15;;;;;;;;;;;12.70;99.90;;;;;;4717747;30;19915;-78
2020/12/20 13:38:41;;;;;;;;;;;12.90;99.90;;;;;;4719163;30;19921;-80
2020/12/20 13:41:07;;;;;;;;;;;13.10;99.90;;;;;;4735156;30;19915;-79
2020/12/20 13:43:48;;;;;;;;;;;13.00;99.90;;;;;;4733185;30;19926;-80
2020/12/20 13:46:14;;;;;;;;;;;13.00;99.90;;;;;;4735157;30;19972;-77
2020/12/20 13:48:40;;;;;;;;;;;13.10;99.90;;;;;;4727864;30;19918;-78
2020/12/20 13:51:06;;;;;;;;;;;13.10;98.20;;;;;;4732314;30;19954;-77
2020/12/20 13:53:31;;;;;;;;;;;13.10;99.70;;;;;;4727708;30;19914;-77
2020/12/20 13:55:57;;;;;;;;;;;13.00;99.90;;;;;;4716170;30;19969;-77
2020/12/20 13:58:23;;;;;;;;;;;13.10;99.90;;;;;;4731469;30;19918;-78
2020/12/20 14:00:55;;;;;;;;;;;13.10;98.10;;;;;;4725120;30;20009;-78
2020/12/20 14:03:20;;;;;;;;;;;13.20;98.70;;;;;;4731099;30;19945;-78
2020/12/20 14:05:46;;;;;;;;;;;13.00;97.90;;;;;;4730706;30;19945;-78
2020/12/20 14:08:12;;;;;;;;;;;13.00;99.30;;;;;;4731404;30;20391;-78
2020/12/20 14:10:37;;;;;;;;;;;12.90;99.90;;;;;;4729535;30;20386;-78
2020/12/20 14:13:03;;;;;;;;;;;12.90;98.60;;;;;;4729409;30;19915;-77
2020/12/20 14:15:32;;;;;;;;;;;12.90;97.90;;;;;;4733155;30;20657;-78
2020/12/20 14:17:58;;;;;;;;;;;12.90;97.20;;;;;;4734178;30;19929;-78
2020/12/20 14:20:24;;;;;;;;;;;12.90;97.00;;;;;;4736343;30;19920;-78
2020/12/20 14:22:50;;;;;;;;;;;12.90;97.90;;;;;;4734873;30;19922;-77
2020/12/20 14:25:16;;;;;;;;;;;12.90;98.30;;;;;;4734776;30;19946;-78
2020/12/20 14:27:41;;;;;;;;;;;13.00;97.60;;;;;;4720449;30;19921;-79
2020/12/20 14:30:23;;;;;;;;;;;12.90;96.90;;;;;;4735955;30;19953;-79
2020/12/20 14:32:49;;;;;;;;;;;13.00;96.60;;;;;;4732437;30;19945;-78
2020/12/20 14:35:31;;;;;;;;;;;12.90;96.90;;;;;;4719166;30;20386;-80